Auburn, Kentucky
Current Conditions -  °F | °C
As of 11:53 AM on Thursday 29 Jan 2015 (Local Time) from KBWG Reporting Station
Overcast Overcast  
Wind Chill: 59°   Ceiling: 4300
Heat Index: 59°   Visibility: 10mi
Dew Point: 41°   Wind: 22mph
Humidity: 51%   Direction: 260°W
Pressure: 30"   Gusts: 28mph
Location:  36.86°N, 86.71°W
Report Text: KBWG 291753Z AUTO 26019G24KT 10SM OVC043 15/05 A3000 RMK AO2 SLP158 T01500050 10156 20083 51006
Loading
Personal Weather Stations






























Interactive Weather Map New forecast layout! Learn more

10-Day Weather Forecast

Advertisements
Track Severe Weather on mobile